sensor_id;sensor_type;location;lat;lon;timestamp;temperature;humidity
77247;SHT35;66279;42.820;23.374;2023-07-29T00:01:05;14.33;75.90
77247;SHT35;66279;42.820;23.374;2023-07-29T00:03:30;14.36;76.02
77247;SHT35;66279;42.820;23.374;2023-07-29T00:05:57;14.38;75.92
77247;SHT35;66279;42.820;23.374;2023-07-29T00:08:22;14.36;75.95
77247;SHT35;66279;42.820;23.374;2023-07-29T00:10:48;14.33;76.08
77247;SHT35;66279;42.820;23.374;2023-07-29T00:13:13;14.33;76.39
77247;SHT35;66279;42.820;23.374;2023-07-29T00:15:39;14.29;76.24
77247;SHT35;66279;42.820;23.374;2023-07-29T00:18:04;14.24;76.32
77247;SHT35;66279;42.820;23.374;2023-07-29T00:20:30;14.28;76.64
77247;SHT35;66279;42.820;23.374;2023-07-29T00:22:55;14.39;76.17
77247;SHT35;66279;42.820;23.374;2023-07-29T00:25:23;14.48;75.22
77247;SHT35;66279;42.820;23.374;2023-07-29T00:27:48;14.56;75.81
77247;SHT35;66279;42.820;23.374;2023-07-29T00:30:14;14.57;75.14
77247;SHT35;66279;42.820;23.374;2023-07-29T00:32:39;14.59;75.20
77247;SHT35;66279;42.820;23.374;2023-07-29T00:35:05;14.56;75.60
77247;SHT35;66279;42.820;23.374;2023-07-29T00:37:31;14.53;75.72
77247;SHT35;66279;42.820;23.374;2023-07-29T00:39:57;14.50;75.96
77247;SHT35;66279;42.820;23.374;2023-07-29T00:42:23;14.50;75.18
77247;SHT35;66279;42.820;23.374;2023-07-29T00:44:49;14.52;75.38
77247;SHT35;66279;42.820;23.374;2023-07-29T00:47:15;14.53;75.25
77247;SHT35;66279;42.820;23.374;2023-07-29T00:49:43;14.42;75.88
77247;SHT35;66279;42.820;23.374;2023-07-29T00:52:09;14.33;76.06
77247;SHT35;66279;42.820;23.374;2023-07-29T00:54:40;14.30;75.22
77247;SHT35;66279;42.820;23.374;2023-07-29T00:57:08;14.29;75.57
77247;SHT35;66279;42.820;23.374;2023-07-29T00:59:35;14.28;75.95
77247;SHT35;66279;42.820;23.374;2023-07-29T01:02:01;14.19;76.93
77247;SHT35;66279;42.820;23.374;2023-07-29T01:04:27;14.14;76.74
77247;SHT35;66279;42.820;23.374;2023-07-29T01:10:00;14.12;76.05
77247;SHT35;66279;42.820;23.374;2023-07-29T01:12:42;14.18;77.12
77247;SHT35;66279;42.820;23.374;2023-07-29T01:15:41;14.18;76.15
77247;SHT35;66279;42.820;23.374;2023-07-29T01:18:12;14.17;76.22
77247;SHT35;66279;42.820;23.374;2023-07-29T01:20:40;14.18;76.26
77247;SHT35;66279;42.820;23.374;2023-07-29T01:23:05;14.14;76.17
77247;SHT35;66279;42.820;23.374;2023-07-29T01:25:31;14.12;76.62
77247;SHT35;66279;42.820;23.374;2023-07-29T01:27:57;14.08;77.02
77247;SHT35;66279;42.820;23.374;2023-07-29T01:30:30;14.02;76.63
77247;SHT35;66279;42.820;23.374;2023-07-29T01:33:00;14.04;76.53
77247;SHT35;66279;42.820;23.374;2023-07-29T01:35:48;14.01;77.08
77247;SHT35;66279;42.820;23.374;2023-07-29T01:38:30;13.97;76.73
77247;SHT35;66279;42.820;23.374;2023-07-29T01:41:01;13.98;77.17
77247;SHT35;66279;42.820;23.374;2023-07-29T01:43:28;13.98;77.37
77247;SHT35;66279;42.820;23.374;2023-07-29T01:45:54;13.90;78.35
77247;SHT35;66279;42.820;23.374;2023-07-29T01:48:19;13.81;77.73
77247;SHT35;66279;42.820;23.374;2023-07-29T01:50:45;13.67;78.66
77247;SHT35;66279;42.820;23.374;2023-07-29T01:53:11;13.54;79.68
77247;SHT35;66279;42.820;23.374;2023-07-29T01:55:36;13.56;79.04
77247;SHT35;66279;42.820;23.374;2023-07-29T01:58:02;13.60;79.28
77247;SHT35;66279;42.820;23.374;2023-07-29T02:00:28;13.50;79.83
77247;SHT35;66279;42.820;23.374;2023-07-29T02:02:53;13.44;79.15
77247;SHT35;66279;42.820;23.374;2023-07-29T02:05:19;13.39;79.15
77247;SHT35;66279;42.820;23.374;2023-07-29T02:07:45;13.33;79.67
77247;SHT35;66279;42.820;23.374;2023-07-29T02:10:10;13.27;79.50
77247;SHT35;66279;42.820;23.374;2023-07-29T02:12:36;13.15;79.86
77247;SHT35;66279;42.820;23.374;2023-07-29T02:15:02;13.02;81.02
77247;SHT35;66279;42.820;23.374;2023-07-29T02:17:28;12.91;81.25
77247;SHT35;66279;42.820;23.374;2023-07-29T02:19:53;12.88;81.87
77247;SHT35;66279;42.820;23.374;2023-07-29T02:22:19;12.88;81.34
77247;SHT35;66279;42.820;23.374;2023-07-29T02:24:45;12.89;80.64
77247;SHT35;66279;42.820;23.374;2023-07-29T02:27:11;12.98;80.79
77247;SHT35;66279;42.820;23.374;2023-07-29T02:29:36;12.99;81.04
77247;SHT35;66279;42.820;23.374;2023-07-29T02:32:02;12.99;81.40
77247;SHT35;66279;42.820;23.374;2023-07-29T02:34:29;12.93;81.77
77247;SHT35;66279;42.820;23.374;2023-07-29T02:36:54;12.98;80.33
77247;SHT35;66279;42.820;23.374;2023-07-29T02:39:20;13.05;80.34
77247;SHT35;66279;42.820;23.374;2023-07-29T02:41:45;13.06;80.77
77247;SHT35;66279;42.820;23.374;2023-07-29T02:44:11;12.99;80.53
77247;SHT35;66279;42.820;23.374;2023-07-29T02:46:37;12.92;80.67
77247;SHT35;66279;42.820;23.374;2023-07-29T02:49:03;12.82;81.09
77247;SHT35;66279;42.820;23.374;2023-07-29T02:51:30;12.82;81.06
77247;SHT35;66279;42.820;23.374;2023-07-29T02:53:55;12.82;80.93
77247;SHT35;66279;42.820;23.374;2023-07-29T02:56:21;12.71;81.05
77247;SHT35;66279;42.820;23.374;2023-07-29T02:58:46;12.71;81.08
77247;SHT35;66279;42.820;23.374;2023-07-29T03:01:12;12.74;81.05
77247;SHT35;66279;42.820;23.374;2023-07-29T03:03:38;12.79;81.54
77247;SHT35;66279;42.820;23.374;2023-07-29T03:06:06;12.79;81.14
77247;SHT35;66279;42.820;23.374;2023-07-29T03:08:32;12.78;81.41
77247;SHT35;66279;42.820;23.374;2023-07-29T03:10:58;12.77;82.08
77247;SHT35;66279;42.820;23.374;2023-07-29T03:13:24;12.78;81.91
77247;SHT35;66279;42.820;23.374;2023-07-29T03:15:51;12.85;81.65
77247;SHT35;66279;42.820;23.374;2023-07-29T03:18:17;12.85;81.42
77247;SHT35;66279;42.820;23.374;2023-07-29T03:20:42;12.79;81.93
77247;SHT35;66279;42.820;23.374;2023-07-29T03:23:08;12.77;81.43
77247;SHT35;66279;42.820;23.374;2023-07-29T03:25:33;12.78;81.29
77247;SHT35;66279;42.820;23.374;2023-07-29T03:28:00;12.79;81.51
77247;SHT35;66279;42.820;23.374;2023-07-29T03:30:25;12.82;81.81
77247;SHT35;66279;42.820;23.374;2023-07-29T03:32:51;12.85;81.71
77247;SHT35;66279;42.820;23.374;2023-07-29T03:35:16;12.85;81.84
77247;SHT35;66279;42.820;23.374;2023-07-29T03:37:42;12.91;81.31
77247;SHT35;66279;42.820;23.374;2023-07-29T03:40:08;12.95;81.70
77247;SHT35;66279;42.820;23.374;2023-07-29T03:42:37;12.99;80.96
77247;SHT35;66279;42.820;23.374;2023-07-29T03:45:03;12.99;81.64
77247;SHT35;66279;42.820;23.374;2023-07-29T03:47:29;12.99;81.10
77247;SHT35;66279;42.820;23.374;2023-07-29T03:49:54;12.92;81.45
77247;SHT35;66279;42.820;23.374;2023-07-29T03:52:20;12.91;81.93
77247;SHT35;66279;42.820;23.374;2023-07-29T03:54:45;12.91;81.52
77247;SHT35;66279;42.820;23.374;2023-07-29T03:57:11;12.92;82.38
77247;SHT35;66279;42.820;23.374;2023-07-29T03:59:37;12.93;81.84
77247;SHT35;66279;42.820;23.374;2023-07-29T04:02:02;12.96;82.84
77247;SHT35;66279;42.820;23.374;2023-07-29T04:04:28;12.98;82.53
77247;SHT35;66279;42.820;23.374;2023-07-29T04:06:53;13.02;82.48
77247;SHT35;66279;42.820;23.374;2023-07-29T04:09:19;13.12;82.20
77247;SHT35;66279;42.820;23.374;2023-07-29T04:11:44;13.20;82.04
77247;SHT35;66279;42.820;23.374;2023-07-29T04:14:10;13.29;82.11
77247;SHT35;66279;42.820;23.374;2023-07-29T04:16:36;13.38;82.41
77247;SHT35;66279;42.820;23.374;2023-07-29T04:19:01;13.47;81.95
77247;SHT35;66279;42.820;23.374;2023-07-29T04:21:26;13.61;81.25
77247;SHT35;66279;42.820;23.374;2023-07-29T04:23:52;13.70;81.07
77247;SHT35;66279;42.820;23.374;2023-07-29T04:26:18;13.78;80.99
77247;SHT35;66279;42.820;23.374;2023-07-29T04:28:43;13.85;80.66
77247;SHT35;66279;42.820;23.374;2023-07-29T04:31:09;13.91;80.09
77247;SHT35;66279;42.820;23.374;2023-07-29T04:33:34;13.95;80.18
77247;SHT35;66279;42.820;23.374;2023-07-29T04:36:00;14.04;80.22
77247;SHT35;66279;42.820;23.374;2023-07-29T04:38:31;14.05;80.01
77247;SHT35;66279;42.820;23.374;2023-07-29T04:41:00;14.14;79.93
77247;SHT35;66279;42.820;23.374;2023-07-29T04:43:31;14.19;79.83
77247;SHT35;66279;42.820;23.374;2023-07-29T04:45:57;14.26;79.18
77247;SHT35;66279;42.820;23.374;2023-07-29T04:48:22;14.43;79.11
77247;SHT35;66279;42.820;23.374;2023-07-29T04:50:48;14.55;78.35
77247;SHT35;66279;42.820;23.374;2023-07-29T04:53:14;14.62;78.58
77247;SHT35;66279;42.820;23.374;2023-07-29T04:55:41;14.77;78.34
77247;SHT35;66279;42.820;23.374;2023-07-29T04:58:08;14.86;79.07
77247;SHT35;66279;42.820;23.374;2023-07-29T05:00:33;14.94;79.29
77247;SHT35;66279;42.820;23.374;2023-07-29T05:02:59;14.98;78.73
77247;SHT35;66279;42.820;23.374;2023-07-29T05:05:25;15.03;79.33
77247;SHT35;66279;42.820;23.374;2023-07-29T05:07:50;15.16;77.85
77247;SHT35;66279;42.820;23.374;2023-07-29T05:10:15;15.23;77.87
77247;SHT35;66279;42.820;23.374;2023-07-29T05:12:41;15.34;77.87
77247;SHT35;66279;42.820;23.374;2023-07-29T05:15:08;15.42;78.23
77247;SHT35;66279;42.820;23.374;2023-07-29T05:17:33;15.58;76.79
77247;SHT35;66279;42.820;23.374;2023-07-29T05:19:59;15.65;76.52
77247;SHT35;66279;42.820;23.374;2023-07-29T05:22:24;15.73;76.84
77247;SHT35;66279;42.820;23.374;2023-07-29T05:24:50;15.83;76.18
77247;SHT35;66279;42.820;23.374;2023-07-29T05:27:16;15.92;75.91
77247;SHT35;66279;42.820;23.374;2023-07-29T05:29:41;16.07;75.05
77247;SHT35;66279;42.820;23.374;2023-07-29T05:32:07;16.18;75.56
77247;SHT35;66279;42.820;23.374;2023-07-29T05:34:33;16.48;73.60
77247;SHT35;66279;42.820;23.374;2023-07-29T05:36:58;16.67;73.25
77247;SHT35;66279;42.820;23.374;2023-07-29T05:39:23;16.81;73.51
77247;SHT35;66279;42.820;23.374;2023-07-29T05:41:49;17.02;72.85
77247;SHT35;66279;42.820;23.374;2023-07-29T05:44:15;17.25;70.74
77247;SHT35;66279;42.820;23.374;2023-07-29T05:46:40;17.40;70.79
77247;SHT35;66279;42.820;23.374;2023-07-29T05:49:06;17.55;69.47
77247;SHT35;66279;42.820;23.374;2023-07-29T05:51:31;17.74;69.72
77247;SHT35;66279;42.820;23.374;2023-07-29T05:53:57;18.01;69.77
77247;SHT35;66279;42.820;23.374;2023-07-29T05:56:22;18.29;68.23
77247;SHT35;66279;42.820;23.374;2023-07-29T05:58:48;18.63;67.00
77247;SHT35;66279;42.820;23.374;2023-07-29T06:01:13;19.01;66.20
77247;SHT35;66279;42.820;23.374;2023-07-29T06:03:39;19.17;65.39
77247;SHT35;66279;42.820;23.374;2023-07-29T06:06:05;19.38;64.00
77247;SHT35;66279;42.820;23.374;2023-07-29T06:08:31;19.61;64.03
77247;SHT35;66279;42.820;23.374;2023-07-29T06:10:59;19.86;62.06
77247;SHT35;66279;42.820;23.374;2023-07-29T06:13:25;20.14;60.42
77247;SHT35;66279;42.820;23.374;2023-07-29T06:15:50;20.40;61.04
77247;SHT35;66279;42.820;23.374;2023-07-29T06:18:15;20.65;59.56
77247;SHT35;66279;42.820;23.374;2023-07-29T06:20:41;20.95;58.34
77247;SHT35;66279;42.820;23.374;2023-07-29T06:23:08;21.02;55.76
77247;SHT35;66279;42.820;23.374;2023-07-29T06:25:33;21.29;57.76
77247;SHT35;66279;42.820;23.374;2023-07-29T06:27:59;21.56;58.09
77247;SHT35;66279;42.820;23.374;2023-07-29T06:30:24;21.74;56.67
77247;SHT35;66279;42.820;23.374;2023-07-29T06:32:50;22.01;56.76
77247;SHT35;66279;42.820;23.374;2023-07-29T06:35:16;22.29;54.12
77247;SHT35;66279;42.820;23.374;2023-07-29T06:37:41;22.53;54.25
77247;SHT35;66279;42.820;23.374;2023-07-29T06:40:07;22.87;54.40
77247;SHT35;66279;42.820;23.374;2023-07-29T06:42:33;23.08;52.47
77247;SHT35;66279;42.820;23.374;2023-07-29T06:44:59;23.08;51.89
77247;SHT35;66279;42.820;23.374;2023-07-29T06:47:25;23.33;52.04
77247;SHT35;66279;42.820;23.374;2023-07-29T06:49:50;23.57;50.20
77247;SHT35;66279;42.820;23.374;2023-07-29T06:52:16;23.81;51.83
77247;SHT35;66279;42.820;23.374;2023-07-29T06:54:41;23.99;49.23
77247;SHT35;66279;42.820;23.374;2023-07-29T06:57:07;24.36;50.68
77247;SHT35;66279;42.820;23.374;2023-07-29T06:59:36;24.60;49.86
77247;SHT35;66279;42.820;23.374;2023-07-29T07:02:01;24.94;49.41
77247;SHT35;66279;42.820;23.374;2023-07-29T07:04:27;25.11;47.34
77247;SHT35;66279;42.820;23.374;2023-07-29T07:06:53;25.18;46.77
77247;SHT35;66279;42.820;23.374;2023-07-29T07:09:19;25.46;50.12
77247;SHT35;66279;42.820;23.374;2023-07-29T07:11:45;25.53;46.11
77247;SHT35;66279;42.820;23.374;2023-07-29T07:14:10;25.69;47.50
77247;SHT35;66279;42.820;23.374;2023-07-29T07:16:36;25.81;45.51
77247;SHT35;66279;42.820;23.374;2023-07-29T07:19:02;25.73;44.87
77247;SHT35;66279;42.820;23.374;2023-07-29T07:21:28;26.31;47.55
77247;SHT35;66279;42.820;23.374;2023-07-29T07:23:53;26.68;46.46
77247;SHT35;66279;42.820;23.374;2023-07-29T07:26:19;26.80;41.85
77247;SHT35;66279;42.820;23.374;2023-07-29T07:28:45;26.89;43.11
77247;SHT35;66279;42.820;23.374;2023-07-29T07:31:10;26.79;42.98
77247;SHT35;66279;42.820;23.374;2023-07-29T07:33:36;27.31;42.57
77247;SHT35;66279;42.820;23.374;2023-07-29T07:36:01;27.30;41.46
77247;SHT35;66279;42.820;23.374;2023-07-29T07:38:27;27.74;42.83
77247;SHT35;66279;42.820;23.374;2023-07-29T07:40:54;27.98;40.22
77247;SHT35;66279;42.820;23.374;2023-07-29T07:43:20;28.13;45.41
77247;SHT35;66279;42.820;23.374;2023-07-29T07:45:45;28.08;39.22
77247;SHT35;66279;42.820;23.374;2023-07-29T07:48:11;28.22;40.18
77247;SHT35;66279;42.820;23.374;2023-07-29T07:50:38;28.64;39.13
77247;SHT35;66279;42.820;23.374;2023-07-29T07:53:04;29.05;41.36
77247;SHT35;66279;42.820;23.374;2023-07-29T07:55:30;29.23;36.86
77247;SHT35;66279;42.820;23.374;2023-07-29T07:57:55;29.51;36.54
77247;SHT35;66279;42.820;23.374;2023-07-29T08:00:21;29.70;36.65
77247;SHT35;66279;42.820;23.374;2023-07-29T08:02:46;29.80;35.06
77247;SHT35;66279;42.820;23.374;2023-07-29T08:05:12;29.86;35.46
77247;SHT35;66279;42.820;23.374;2023-07-29T08:07:37;30.11;36.60
77247;SHT35;66279;42.820;23.374;2023-07-29T08:10:03;30.64;39.02
77247;SHT35;66279;42.820;23.374;2023-07-29T08:12:29;30.93;38.81
77247;SHT35;66279;42.820;23.374;2023-07-29T08:14:55;31.09;36.27
77247;SHT35;66279;42.820;23.374;2023-07-29T08:17:20;30.83;35.80
77247;SHT35;66279;42.820;23.374;2023-07-29T08:19:46;31.04;37.44
77247;SHT35;66279;42.820;23.374;2023-07-29T08:22:11;31.36;36.36
77247;SHT35;66279;42.820;23.374;2023-07-29T08:24:37;31.74;32.44
77247;SHT35;66279;42.820;23.374;2023-07-29T08:27:02;32.05;34.19
77247;SHT35;66279;42.820;23.374;2023-07-29T08:29:28;31.97;30.62
77247;SHT35;66279;42.820;23.374;2023-07-29T08:31:54;32.36;31.33
77247;SHT35;66279;42.820;23.374;2023-07-29T08:34:20;32.57;33.23
77247;SHT35;66279;42.820;23.374;2023-07-29T08:36:46;31.84;30.09
77247;SHT35;66279;42.820;23.374;2023-07-29T08:39:11;32.29;31.02
77247;SHT35;66279;42.820;23.374;2023-07-29T08:46:42;33.20;32.41
77247;SHT35;66279;42.820;23.374;2023-07-29T08:49:08;33.32;32.04
77247;SHT35;66279;42.820;23.374;2023-07-29T08:51:34;33.06;30.60
77247;SHT35;66279;42.820;23.374;2023-07-29T08:54:00;33.14;30.69
77247;SHT35;66279;42.820;23.374;2023-07-29T08:56:26;33.11;30.64
77247;SHT35;66279;42.820;23.374;2023-07-29T08:58:53;33.51;30.85
77247;SHT35;66279;42.820;23.374;2023-07-29T09:01:19;33.65;32.36
77247;SHT35;66279;42.820;23.374;2023-07-29T09:03:44;34.24;31.72
77247;SHT35;66279;42.820;23.374;2023-07-29T09:06:10;34.51;31.20
77247;SHT35;66279;42.820;23.374;2023-07-29T09:08:36;34.61;28.98
77247;SHT35;66279;42.820;23.374;2023-07-29T09:11:02;34.30;31.99
77247;SHT35;66279;42.820;23.374;2023-07-29T09:13:28;34.51;29.17
77247;SHT35;66279;42.820;23.374;2023-07-29T09:15:55;35.01;28.36
77247;SHT35;66279;42.820;23.374;2023-07-29T09:18:22;34.87;29.06
77247;SHT35;66279;42.820;23.374;2023-07-29T09:20:49;35.38;27.79
77247;SHT35;66279;42.820;23.374;2023-07-29T09:23:14;35.35;28.13
77247;SHT35;66279;42.820;23.374;2023-07-29T09:25:40;35.01;29.32
77247;SHT35;66279;42.820;23.374;2023-07-29T09:28:12;34.63;29.15
77247;SHT35;66279;42.820;23.374;2023-07-29T09:30:42;34.51;27.77
77247;SHT35;66279;42.820;23.374;2023-07-29T09:33:11;34.64;29.37
77247;SHT35;66279;42.820;23.374;2023-07-29T09:35:37;34.99;31.06
77247;SHT35;66279;42.820;23.374;2023-07-29T09:38:04;34.99;28.16
77247;SHT35;66279;42.820;23.374;2023-07-29T09:40:39;35.34;29.91
77247;SHT35;66279;42.820;23.374;2023-07-29T09:43:05;35.32;29.24
77247;SHT35;66279;42.820;23.374;2023-07-29T09:45:33;35.22;28.60
77247;SHT35;66279;42.820;23.374;2023-07-29T09:47:59;35.34;28.86
77247;SHT35;66279;42.820;23.374;2023-07-29T09:50:25;35.94;30.25
77247;SHT35;66279;42.820;23.374;2023-07-29T09:52:52;35.98;28.81
77247;SHT35;66279;42.820;23.374;2023-07-29T09:55:19;36.14;26.53
77247;SHT35;66279;42.820;23.374;2023-07-29T09:57:45;35.86;26.06
77247;SHT35;66279;42.820;23.374;2023-07-29T10:00:11;36.43;26.55
77247;SHT35;66279;42.820;23.374;2023-07-29T10:02:39;36.83;26.35
77247;SHT35;66279;42.820;23.374;2023-07-29T10:05:05;37.16;26.91
77247;SHT35;66279;42.820;23.374;2023-07-29T10:07:31;37.13;26.82
77247;SHT35;66279;42.820;23.374;2023-07-29T10:09:58;37.53;25.47
77247;SHT35;66279;42.820;23.374;2023-07-29T10:12:24;37.77;24.97
77247;SHT35;66279;42.820;23.374;2023-07-29T10:14:50;37.27;24.98
77247;SHT35;66279;42.820;23.374;2023-07-29T10:17:16;36.79;25.93
77247;SHT35;66279;42.820;23.374;2023-07-29T10:19:43;37.50;25.77
77247;SHT35;66279;42.820;23.374;2023-07-29T10:22:11;36.58;25.79
77247;SHT35;66279;42.820;23.374;2023-07-29T10:24:39;37.27;24.74
77247;SHT35;66279;42.820;23.374;2023-07-29T10:27:09;37.20;25.66
77247;SHT35;66279;42.820;23.374;2023-07-29T10:29:38;37.13;25.53
77247;SHT35;66279;42.820;23.374;2023-07-29T10:32:07;37.03;25.43
77247;SHT35;66279;42.820;23.374;2023-07-29T10:34:35;36.88;25.07
77247;SHT35;66279;42.820;23.374;2023-07-29T10:37:02;37.15;25.84
77247;SHT35;66279;42.820;23.374;2023-07-29T10:39:27;37.27;24.06
77247;SHT35;66279;42.820;23.374;2023-07-29T10:42:05;37.44;24.52
77247;SHT35;66279;42.820;23.374;2023-07-29T10:47:26;36.88;25.48
77247;SHT35;66279;42.820;23.374;2023-07-29T10:49:54;37.41;27.34
77247;SHT35;66279;42.820;23.374;2023-07-29T10:52:31;37.51;25.25
77247;SHT35;66279;42.820;23.374;2023-07-29T10:54:57;37.13;23.64
77247;SHT35;66279;42.820;23.374;2023-07-29T10:57:35;36.68;24.25
77247;SHT35;66279;42.820;23.374;2023-07-29T11:00:01;36.82;25.09
77247;SHT35;66279;42.820;23.374;2023-07-29T11:02:38;37.13;25.60
77247;SHT35;66279;42.820;23.374;2023-07-29T11:05:21;36.75;25.26
77247;SHT35;66279;42.820;23.374;2023-07-29T11:07:48;36.79;24.02
77247;SHT35;66279;42.820;23.374;2023-07-29T11:10:14;37.63;23.81
77247;SHT35;66279;42.820;23.374;2023-07-29T11:12:47;38.33;25.15
77247;SHT35;66279;42.820;23.374;2023-07-29T11:15:17;38.45;24.40
77247;SHT35;66279;42.820;23.374;2023-07-29T11:17:52;38.08;24.96
77247;SHT35;66279;42.820;23.374;2023-07-29T11:20:20;38.31;24.00
77247;SHT35;66279;42.820;23.374;2023-07-29T11:22:48;38.69;23.35
77247;SHT35;66279;42.820;23.374;2023-07-29T11:25:15;39.06;21.87
77247;SHT35;66279;42.820;23.374;2023-07-29T11:27:42;38.77;22.69
77247;SHT35;66279;42.820;23.374;2023-07-29T11:30:12;38.82;22.84
77247;SHT35;66279;42.820;23.374;2023-07-29T11:32:39;38.27;21.80
77247;SHT35;66279;42.820;23.374;2023-07-29T11:35:05;37.92;21.89
77247;SHT35;66279;42.820;23.374;2023-07-29T11:37:33;38.09;23.12
77247;SHT35;66279;42.820;23.374;2023-07-29T11:39:59;38.69;23.41
77247;SHT35;66279;42.820;23.374;2023-07-29T11:42:26;38.66;22.63
77247;SHT35;66279;42.820;23.374;2023-07-29T11:44:51;38.44;21.84
77247;SHT35;66279;42.820;23.374;2023-07-29T11:47:17;39.03;21.69
77247;SHT35;66279;42.820;23.374;2023-07-29T11:49:42;38.65;21.23
77247;SHT35;66279;42.820;23.374;2023-07-29T11:52:09;38.25;21.57
77247;SHT35;66279;42.820;23.374;2023-07-29T11:54:36;38.18;21.29
77247;SHT35;66279;42.820;23.374;2023-07-29T11:57:06;38.49;21.29
77247;SHT35;66279;42.820;23.374;2023-07-29T11:59:33;38.08;20.22
77247;SHT35;66279;42.820;23.374;2023-07-29T12:02:00;38.40;21.07
77247;SHT35;66279;42.820;23.374;2023-07-29T12:04:26;38.00;20.29
77247;SHT35;66279;42.820;23.374;2023-07-29T12:06:52;37.67;22.02
77247;SHT35;66279;42.820;23.374;2023-07-29T12:09:17;38.24;21.31
77247;SHT35;66279;42.820;23.374;2023-07-29T12:11:44;38.75;20.80
77247;SHT35;66279;42.820;23.374;2023-07-29T12:14:16;38.66;20.32
77247;SHT35;66279;42.820;23.374;2023-07-29T12:16:48;38.96;20.00
77247;SHT35;66279;42.820;23.374;2023-07-29T12:19:14;39.04;21.28
77247;SHT35;66279;42.820;23.374;2023-07-29T12:21:41;38.70;19.97
77247;SHT35;66279;42.820;23.374;2023-07-29T12:24:07;38.93;20.31
77247;SHT35;66279;42.820;23.374;2023-07-29T12:26:33;39.50;19.97
77247;SHT35;66279;42.820;23.374;2023-07-29T12:28:59;39.60;19.63
77247;SHT35;66279;42.820;23.374;2023-07-29T12:31:31;39.54;19.96
77247;SHT35;66279;42.820;23.374;2023-07-29T12:34:00;39.61;20.68
77247;SHT35;66279;42.820;23.374;2023-07-29T12:36:46;40.05;20.21
77247;SHT35;66279;42.820;23.374;2023-07-29T12:39:29;40.24;19.25
77247;SHT35;66279;42.820;23.374;2023-07-29T12:41:57;39.74;19.54
77247;SHT35;66279;42.820;23.374;2023-07-29T12:44:24;38.96;21.47
77247;SHT35;66279;42.820;23.374;2023-07-29T12:46:50;39.06;19.06
77247;SHT35;66279;42.820;23.374;2023-07-29T12:49:16;39.61;20.34
77247;SHT35;66279;42.820;23.374;2023-07-29T12:51:45;39.06;18.70
77247;SHT35;66279;42.820;23.374;2023-07-29T12:54:11;39.31;19.80
77247;SHT35;66279;42.820;23.374;2023-07-29T12:56:36;39.10;19.69
77247;SHT35;66279;42.820;23.374;2023-07-29T12:59:02;38.45;20.70
77247;SHT35;66279;42.820;23.374;2023-07-29T13:01:29;39.17;20.12
77247;SHT35;66279;42.820;23.374;2023-07-29T13:03:55;38.97;21.85
77247;SHT35;66279;42.820;23.374;2023-07-29T13:06:22;38.05;22.86
77247;SHT35;66279;42.820;23.374;2023-07-29T13:08:47;37.18;24.22
77247;SHT35;66279;42.820;23.374;2023-07-29T13:11:14;37.16;24.83
77247;SHT35;66279;42.820;23.374;2023-07-29T13:13:40;37.13;24.47
77247;SHT35;66279;42.820;23.374;2023-07-29T13:16:05;36.61;25.46
77247;SHT35;66279;42.820;23.374;2023-07-29T13:18:32;36.52;25.64
77247;SHT35;66279;42.820;23.374;2023-07-29T13:21:00;36.33;25.30
77247;SHT35;66279;42.820;23.374;2023-07-29T13:23:26;36.08;25.80
77247;SHT35;66279;42.820;23.374;2023-07-29T13:25:56;36.13;26.01
77247;SHT35;66279;42.820;23.374;2023-07-29T13:28:22;36.31;26.45
77247;SHT35;66279;42.820;23.374;2023-07-29T13:30:48;37.13;25.98
77247;SHT35;66279;42.820;23.374;2023-07-29T13:33:14;37.23;25.70
77247;SHT35;66279;42.820;23.374;2023-07-29T13:35:39;37.23;25.31
77247;SHT35;66279;42.820;23.374;2023-07-29T13:38:05;37.08;25.82
77247;SHT35;66279;42.820;23.374;2023-07-29T13:40:31;36.43;26.77
77247;SHT35;66279;42.820;23.374;2023-07-29T13:42:57;36.71;26.99
77247;SHT35;66279;42.820;23.374;2023-07-29T13:45:22;36.62;27.27
77247;SHT35;66279;42.820;23.374;2023-07-29T13:47:49;36.60;27.08
77247;SHT35;66279;42.820;23.374;2023-07-29T13:50:16;36.52;26.78
77247;SHT35;66279;42.820;23.374;2023-07-29T13:52:42;36.37;26.28
77247;SHT35;66279;42.820;23.374;2023-07-29T13:55:07;35.89;28.01
77247;SHT35;66279;42.820;23.374;2023-07-29T13:57:33;35.62;28.01
77247;SHT35;66279;42.820;23.374;2023-07-29T13:59:59;35.35;27.73
77247;SHT35;66279;42.820;23.374;2023-07-29T14:02:24;35.57;28.57
77247;SHT35;66279;42.820;23.374;2023-07-29T14:04:52;35.82;27.54
77247;SHT35;66279;42.820;23.374;2023-07-29T14:07:20;35.60;27.05
77247;SHT35;66279;42.820;23.374;2023-07-29T14:09:45;35.52;27.60
77247;SHT35;66279;42.820;23.374;2023-07-29T14:12:12;35.46;28.04
77247;SHT35;66279;42.820;23.374;2023-07-29T14:14:43;35.82;27.35
77247;SHT35;66279;42.820;23.374;2023-07-29T14:17:08;34.97;27.92
77247;SHT35;66279;42.820;23.374;2023-07-29T14:19:35;34.70;28.05
77247;SHT35;66279;42.820;23.374;2023-07-29T14:22:01;34.51;28.52
77247;SHT35;66279;42.820;23.374;2023-07-29T14:24:27;34.77;28.10
77247;SHT35;66279;42.820;23.374;2023-07-29T14:26:52;34.66;28.12
77247;SHT35;66279;42.820;23.374;2023-07-29T14:29:18;34.74;28.50
77247;SHT35;66279;42.820;23.374;2023-07-29T14:31:44;35.01;28.14
77247;SHT35;66279;42.820;23.374;2023-07-29T14:34:09;34.86;28.49
77247;SHT35;66279;42.820;23.374;2023-07-29T14:36:36;34.78;28.07
77247;SHT35;66279;42.820;23.374;2023-07-29T14:39:01;34.78;28.24
77247;SHT35;66279;42.820;23.374;2023-07-29T14:41:27;34.50;29.22
77247;SHT35;66279;42.820;23.374;2023-07-29T14:43:53;34.80;27.47
77247;SHT35;66279;42.820;23.374;2023-07-29T14:46:18;34.44;28.02
77247;SHT35;66279;42.820;23.374;2023-07-29T14:48:44;34.08;28.82
77247;SHT35;66279;42.820;23.374;2023-07-29T14:51:10;34.09;28.55
77247;SHT35;66279;42.820;23.374;2023-07-29T14:53:36;34.19;28.38
77247;SHT35;66279;42.820;23.374;2023-07-29T14:56:01;34.02;28.81
77247;SHT35;66279;42.820;23.374;2023-07-29T14:58:27;33.68;29.43
77247;SHT35;66279;42.820;23.374;2023-07-29T15:00:53;33.65;29.53
77247;SHT35;66279;42.820;23.374;2023-07-29T15:03:18;33.52;29.84
77247;SHT35;66279;42.820;23.374;2023-07-29T15:05:44;33.35;29.88
77247;SHT35;66279;42.820;23.374;2023-07-29T15:08:09;33.50;29.73
77247;SHT35;66279;42.820;23.374;2023-07-29T15:10:35;33.42;30.31
77247;SHT35;66279;42.820;23.374;2023-07-29T15:13:00;33.45;30.24
77247;SHT35;66279;42.820;23.374;2023-07-29T15:15:26;33.34;29.91
77247;SHT35;66279;42.820;23.374;2023-07-29T15:17:51;33.25;29.99
77247;SHT35;66279;42.820;23.374;2023-07-29T15:20:17;33.25;30.36
77247;SHT35;66279;42.820;23.374;2023-07-29T15:22:42;33.23;30.55